sensor_id;sensor_type;location;lat;lon;timestamp;temperature;humidity
23116;DHT22;11727;52.134;5.052;2023-08-31T00:00:09;13.00;99.90
23116;DHT22;11727;52.134;5.052;2023-08-31T00:02:35;13.00;99.90
23116;DHT22;11727;52.134;5.052;2023-08-31T00:05:02;13.00;99.90
23116;DHT22;11727;52.134;5.052;2023-08-31T00:07:29;13.10;99.90
23116;DHT22;11727;52.134;5.052;2023-08-31T00:09:55;13.00;99.90
23116;DHT22;11727;52.134;5.052;2023-08-31T00:12:20;13.10;99.90
23116;DHT22;11727;52.134;5.052;2023-08-31T00:14:49;13.00;99.90
23116;DHT22;11727;52.134;5.052;2023-08-31T00:17:15;13.00;99.90
23116;DHT22;11727;52.134;5.052;2023-08-31T00:19:40;13.10;99.90
23116;DHT22;11727;52.134;5.052;2023-08-31T00:22:06;13.10;99.90
23116;DHT22;11727;52.134;5.052;2023-08-31T00:24:31;13.10;99.90
23116;DHT22;11727;52.134;5.052;2023-08-31T00:26:57;13.10;99.90
23116;DHT22;11727;52.134;5.052;2023-08-31T00:29:23;13.10;99.90
23116;DHT22;11727;52.134;5.052;2023-08-31T00:31:51;13.10;99.90
23116;DHT22;11727;52.134;5.052;2023-08-31T00:34:16;13.10;99.90
23116;DHT22;11727;52.134;5.052;2023-08-31T00:36:43;13.10;99.90
23116;DHT22;11727;52.134;5.052;2023-08-31T00:39:08;13.20;99.90
23116;DHT22;11727;52.134;5.052;2023-08-31T00:41:36;13.20;99.90
23116;DHT22;11727;52.134;5.052;2023-08-31T00:44:02;13.20;99.90
23116;DHT22;11727;52.134;5.052;2023-08-31T00:46:30;13.20;99.90
23116;DHT22;11727;52.134;5.052;2023-08-31T00:48:57;13.20;99.90
23116;DHT22;11727;52.134;5.052;2023-08-31T00:51:23;13.20;99.90
23116;DHT22;11727;52.134;5.052;2023-08-31T00:53:51;13.30;99.90
23116;DHT22;11727;52.134;5.052;2023-08-31T00:56:20;13.30;99.90
23116;DHT22;11727;52.134;5.052;2023-08-31T00:58:46;13.40;99.90
23116;DHT22;11727;52.134;5.052;2023-08-31T01:01:31;13.40;99.90
23116;DHT22;11727;52.134;5.052;2023-08-31T01:12:46;13.40;99.90
23116;DHT22;11727;52.134;5.052;2023-08-31T01:15:15;13.40;99.90
23116;DHT22;11727;52.134;5.052;2023-08-31T01:17:52;13.40;99.90
23116;DHT22;11727;52.134;5.052;2023-08-31T01:20:26;13.50;99.90
23116;DHT22;11727;52.134;5.052;2023-08-31T01:23:06;13.50;99.90
23116;DHT22;11727;52.134;5.052;2023-08-31T01:25:36;13.50;99.90
23116;DHT22;11727;52.134;5.052;2023-08-31T01:28:04;13.50;99.90
23116;DHT22;11727;52.134;5.052;2023-08-31T01:30:30;13.50;99.90
23116;DHT22;11727;52.134;5.052;2023-08-31T01:32:56;13.50;99.90
23116;DHT22;11727;52.134;5.052;2023-08-31T01:35:22;13.50;99.90
23116;DHT22;11727;52.134;5.052;2023-08-31T01:38:01;13.50;99.90
23116;DHT22;11727;52.134;5.052;2023-08-31T01:40:36;13.40;99.90
23116;DHT22;11727;52.134;5.052;2023-08-31T01:43:04;13.50;99.90
23116;DHT22;11727;52.134;5.052;2023-08-31T01:45:32;13.50;99.90
23116;DHT22;11727;52.134;5.052;2023-08-31T01:47:59;13.50;99.90
23116;DHT22;11727;52.134;5.052;2023-08-31T01:50:25;13.50;99.90
23116;DHT22;11727;52.134;5.052;2023-08-31T01:52:51;13.50;99.90
23116;DHT22;11727;52.134;5.052;2023-08-31T01:55:18;13.50;99.90
23116;DHT22;11727;52.134;5.052;2023-08-31T01:57:44;13.50;99.90
23116;DHT22;11727;52.134;5.052;2023-08-31T02:00:10;13.50;99.90
23116;DHT22;11727;52.134;5.052;2023-08-31T02:02:36;13.50;99.90
23116;DHT22;11727;52.134;5.052;2023-08-31T02:05:02;13.50;99.90
23116;DHT22;11727;52.134;5.052;2023-08-31T02:07:30;13.60;99.90
23116;DHT22;11727;52.134;5.052;2023-08-31T02:09:55;13.60;99.90
23116;DHT22;11727;52.134;5.052;2023-08-31T02:12:21;13.50;99.90
23116;DHT22;11727;52.134;5.052;2023-08-31T02:14:47;13.60;99.90
23116;DHT22;11727;52.134;5.052;2023-08-31T02:17:12;13.60;99.90
23116;DHT22;11727;52.134;5.052;2023-08-31T02:19:38;13.50;99.90
23116;DHT22;11727;52.134;5.052;2023-08-31T02:22:04;13.60;99.90
23116;DHT22;11727;52.134;5.052;2023-08-31T02:24:29;13.60;99.90
23116;DHT22;11727;52.134;5.052;2023-08-31T02:26:56;13.60;99.90
23116;DHT22;11727;52.134;5.052;2023-08-31T02:29:21;13.70;99.90
23116;DHT22;11727;52.134;5.052;2023-08-31T02:31:47;13.60;99.90
23116;DHT22;11727;52.134;5.052;2023-08-31T02:34:12;13.60;99.90
23116;DHT22;11727;52.134;5.052;2023-08-31T02:36:38;13.60;99.90
23116;DHT22;11727;52.134;5.052;2023-08-31T02:39:04;13.60;99.90
23116;DHT22;11727;52.134;5.052;2023-08-31T02:41:29;13.60;99.90
23116;DHT22;11727;52.134;5.052;2023-08-31T02:43:55;13.60;99.90
23116;DHT22;11727;52.134;5.052;2023-08-31T02:46:21;13.60;99.90
23116;DHT22;11727;52.134;5.052;2023-08-31T02:48:48;13.60;99.90
23116;DHT22;11727;52.134;5.052;2023-08-31T02:51:13;13.60;99.90
23116;DHT22;11727;52.134;5.052;2023-08-31T02:53:39;13.60;99.90
23116;DHT22;11727;52.134;5.052;2023-08-31T02:56:05;13.60;99.90
23116;DHT22;11727;52.134;5.052;2023-08-31T02:58:30;13.60;99.90
23116;DHT22;11727;52.134;5.052;2023-08-31T03:01:09;13.60;99.90
23116;DHT22;11727;52.134;5.052;2023-08-31T03:03:39;13.60;99.90
23116;DHT22;11727;52.134;5.052;2023-08-31T03:06:08;13.60;99.90
23116;DHT22;11727;52.134;5.052;2023-08-31T03:08:35;13.50;99.90
23116;DHT22;11727;52.134;5.052;2023-08-31T03:11:02;13.50;99.90
23116;DHT22;11727;52.134;5.052;2023-08-31T03:13:28;13.50;99.90
23116;DHT22;11727;52.134;5.052;2023-08-31T03:15:53;13.50;99.90
23116;DHT22;11727;52.134;5.052;2023-08-31T03:18:19;13.50;99.90
23116;DHT22;11727;52.134;5.052;2023-08-31T03:20:45;13.50;99.90
23116;DHT22;11727;52.134;5.052;2023-08-31T03:23:10;13.50;99.90
23116;DHT22;11727;52.134;5.052;2023-08-31T03:25:36;13.60;99.90
23116;DHT22;11727;52.134;5.052;2023-08-31T03:28:02;13.60;99.90
23116;DHT22;11727;52.134;5.052;2023-08-31T03:30:28;13.60;99.90
23116;DHT22;11727;52.134;5.052;2023-08-31T03:32:54;13.60;99.90
23116;DHT22;11727;52.134;5.052;2023-08-31T03:35:19;13.70;99.90
23116;DHT22;11727;52.134;5.052;2023-08-31T03:37:49;13.70;99.90
23116;DHT22;11727;52.134;5.052;2023-08-31T03:40:15;13.70;99.90
23116;DHT22;11727;52.134;5.052;2023-08-31T03:42:40;13.70;99.90
23116;DHT22;11727;52.134;5.052;2023-08-31T03:45:06;13.70;99.90
23116;DHT22;11727;52.134;5.052;2023-08-31T03:47:32;13.70;99.90
23116;DHT22;11727;52.134;5.052;2023-08-31T03:49:58;13.70;99.90
23116;DHT22;11727;52.134;5.052;2023-08-31T03:52:23;13.70;99.90
23116;DHT22;11727;52.134;5.052;2023-08-31T03:54:50;13.60;99.90
23116;DHT22;11727;52.134;5.052;2023-08-31T03:57:16;13.60;99.90
23116;DHT22;11727;52.134;5.052;2023-08-31T03:59:42;13.50;99.90
23116;DHT22;11727;52.134;5.052;2023-08-31T04:02:07;13.40;99.90
23116;DHT22;11727;52.134;5.052;2023-08-31T04:04:33;13.40;99.90
23116;DHT22;11727;52.134;5.052;2023-08-31T04:06:59;13.30;99.90
23116;DHT22;11727;52.134;5.052;2023-08-31T04:09:25;13.30;99.90
23116;DHT22;11727;52.134;5.052;2023-08-31T04:11:51;13.30;99.90
23116;DHT22;11727;52.134;5.052;2023-08-31T04:14:16;13.20;99.90
23116;DHT22;11727;52.134;5.052;2023-08-31T04:16:44;13.20;99.90
23116;DHT22;11727;52.134;5.052;2023-08-31T04:19:09;13.10;99.90
23116;DHT22;11727;52.134;5.052;2023-08-31T04:21:35;13.10;99.90
23116;DHT22;11727;52.134;5.052;2023-08-31T04:24:01;13.10;99.90
23116;DHT22;11727;52.134;5.052;2023-08-31T04:26:27;13.10;99.90
23116;DHT22;11727;52.134;5.052;2023-08-31T04:28:53;13.10;99.90
23116;DHT22;11727;52.134;5.052;2023-08-31T04:31:18;13.10;99.90
23116;DHT22;11727;52.134;5.052;2023-08-31T04:33:54;13.10;99.90
23116;DHT22;11727;52.134;5.052;2023-08-31T04:36:37;13.00;99.90
23116;DHT22;11727;52.134;5.052;2023-08-31T04:39:03;13.00;99.90
23116;DHT22;11727;52.134;5.052;2023-08-31T04:41:30;13.00;99.90
23116;DHT22;11727;52.134;5.052;2023-08-31T04:43:58;12.90;99.90
23116;DHT22;11727;52.134;5.052;2023-08-31T04:46:54;12.90;99.90
23116;DHT22;11727;52.134;5.052;2023-08-31T04:49:29;12.80;99.90
23116;DHT22;11727;52.134;5.052;2023-08-31T04:51:57;12.80;99.90
23116;DHT22;11727;52.134;5.052;2023-08-31T04:54:24;12.80;99.90
23116;DHT22;11727;52.134;5.052;2023-08-31T04:56:49;12.80;99.90
23116;DHT22;11727;52.134;5.052;2023-08-31T04:59:18;12.80;99.90
23116;DHT22;11727;52.134;5.052;2023-08-31T05:01:44;12.70;99.90
23116;DHT22;11727;52.134;5.052;2023-08-31T05:04:32;12.70;99.90
23116;DHT22;11727;52.134;5.052;2023-08-31T05:06:59;12.70;99.90
23116;DHT22;11727;52.134;5.052;2023-08-31T05:09:52;12.70;99.90
23116;DHT22;11727;52.134;5.052;2023-08-31T05:12:28;12.70;99.90
23116;DHT22;11727;52.134;5.052;2023-08-31T05:14:57;12.70;99.90
23116;DHT22;11727;52.134;5.052;2023-08-31T05:17:23;12.70;99.90
23116;DHT22;11727;52.134;5.052;2023-08-31T05:19:49;12.70;99.90
23116;DHT22;11727;52.134;5.052;2023-08-31T05:22:21;12.80;99.90
23116;DHT22;11727;52.134;5.052;2023-08-31T05:24:48;12.70;99.90
23116;DHT22;11727;52.134;5.052;2023-08-31T05:27:27;12.80;99.90
23116;DHT22;11727;52.134;5.052;2023-08-31T05:30:32;12.80;99.90
23116;DHT22;11727;52.134;5.052;2023-08-31T05:33:00;12.80;99.90
23116;DHT22;11727;52.134;5.052;2023-08-31T05:35:28;12.90;99.90
23116;DHT22;11727;52.134;5.052;2023-08-31T05:37:54;12.90;99.90
23116;DHT22;11727;52.134;5.052;2023-08-31T05:40:27;12.90;99.90
23116;DHT22;11727;52.134;5.052;2023-08-31T05:42:55;12.90;99.90
23116;DHT22;11727;52.134;5.052;2023-08-31T05:45:20;12.90;99.90
23116;DHT22;11727;52.134;5.052;2023-08-31T05:47:46;12.90;99.90
23116;DHT22;11727;52.134;5.052;2023-08-31T05:50:12;12.90;99.90
23116;DHT22;11727;52.134;5.052;2023-08-31T05:52:38;12.90;99.90
23116;DHT22;11727;52.134;5.052;2023-08-31T05:55:04;12.90;99.90
23116;DHT22;11727;52.134;5.052;2023-08-31T05:57:30;12.90;99.90
23116;DHT22;11727;52.134;5.052;2023-08-31T05:59:56;13.00;99.90
23116;DHT22;11727;52.134;5.052;2023-08-31T06:02:21;13.00;99.90
23116;DHT22;11727;52.134;5.052;2023-08-31T06:04:47;13.00;99.90
23116;DHT22;11727;52.134;5.052;2023-08-31T06:16:46;13.00;99.90
23116;DHT22;11727;52.134;5.052;2023-08-31T06:23:02;13.00;99.90
23116;DHT22;11727;52.134;5.052;2023-08-31T06:25:28;13.00;99.90
23116;DHT22;11727;52.134;5.052;2023-08-31T06:28:10;13.00;99.90
23116;DHT22;11727;52.134;5.052;2023-08-31T07:55:39;14.30;99.90
23116;DHT22;11727;52.134;5.052;2023-08-31T07:58:41;14.40;99.90
23116;DHT22;11727;52.134;5.052;2023-08-31T08:12:13;14.80;99.90
23116;DHT22;11727;52.134;5.052;2023-08-31T08:25:14;14.80;99.90
23116;DHT22;11727;52.134;5.052;2023-08-31T08:27:40;14.90;99.90
23116;DHT22;11727;52.134;5.052;2023-08-31T08:30:07;14.90;99.90
23116;DHT22;11727;52.134;5.052;2023-08-31T08:32:38;15.00;99.90
23116;DHT22;11727;52.134;5.052;2023-08-31T08:38:26;15.20;99.90
23116;DHT22;11727;52.134;5.052;2023-08-31T08:40:51;15.40;99.90
23116;DHT22;11727;52.134;5.052;2023-08-31T08:43:46;15.50;99.90
23116;DHT22;11727;52.134;5.052;2023-08-31T08:46:15;15.60;99.90
23116;DHT22;11727;52.134;5.052;2023-08-31T08:55:34;15.60;99.90
23116;DHT22;11727;52.134;5.052;2023-08-31T09:06:28;15.50;99.90
23116;DHT22;11727;52.134;5.052;2023-08-31T09:15:06;15.40;99.90
23116;DHT22;11727;52.134;5.052;2023-08-31T09:51:14;16.00;99.90
23116;DHT22;11727;52.134;5.052;2023-08-31T09:53:41;16.10;99.90
23116;DHT22;11727;52.134;5.052;2023-08-31T09:56:08;16.10;99.90
23116;DHT22;11727;52.134;5.052;2023-08-31T09:58:36;16.20;99.90
23116;DHT22;11727;52.134;5.052;2023-08-31T10:01:02;16.20;99.90
23116;DHT22;11727;52.134;5.052;2023-08-31T10:03:28;16.10;99.90
23116;DHT22;11727;52.134;5.052;2023-08-31T10:05:54;16.00;99.90
23116;DHT22;11727;52.134;5.052;2023-08-31T10:08:20;15.80;99.90
23116;DHT22;11727;52.134;5.052;2023-08-31T10:10:46;15.70;99.90
23116;DHT22;11727;52.134;5.052;2023-08-31T10:13:12;15.70;99.90
23116;DHT22;11727;52.134;5.052;2023-08-31T10:15:39;15.70;99.90
23116;DHT22;11727;52.134;5.052;2023-08-31T10:18:06;15.90;99.90
23116;DHT22;11727;52.134;5.052;2023-08-31T10:20:33;16.00;99.90
23116;DHT22;11727;52.134;5.052;2023-08-31T10:23:06;15.90;99.90
23116;DHT22;11727;52.134;5.052;2023-08-31T10:28:43;15.70;99.90
23116;DHT22;11727;52.134;5.052;2023-08-31T10:40:24;16.00;99.90
23116;DHT22;11727;52.134;5.052;2023-08-31T10:43:16;16.10;99.90
23116;DHT22;11727;52.134;5.052;2023-08-31T10:45:45;16.30;99.90
23116;DHT22;11727;52.134;5.052;2023-08-31T11:17:40;16.90;99.90
23116;DHT22;11727;52.134;5.052;2023-08-31T11:20:07;16.90;99.90
23116;DHT22;11727;52.134;5.052;2023-08-31T11:22:37;16.90;99.90
23116;DHT22;11727;52.134;5.052;2023-08-31T11:25:04;17.00;99.90
23116;DHT22;11727;52.134;5.052;2023-08-31T11:27:30;17.10;99.90
23116;DHT22;11727;52.134;5.052;2023-08-31T11:32:51;17.20;99.90
23116;DHT22;11727;52.134;5.052;2023-08-31T11:35:48;17.40;99.90
23116;DHT22;11727;52.134;5.052;2023-08-31T11:41:46;17.30;99.90
23116;DHT22;11727;52.134;5.052;2023-08-31T11:44:14;17.30;99.90
23116;DHT22;11727;52.134;5.052;2023-08-31T11:46:45;17.40;99.90
23116;DHT22;11727;52.134;5.052;2023-08-31T11:49:13;17.50;99.90
23116;DHT22;11727;52.134;5.052;2023-08-31T11:51:40;17.60;99.90
23116;DHT22;11727;52.134;5.052;2023-08-31T11:54:06;17.60;99.90
23116;DHT22;11727;52.134;5.052;2023-08-31T11:56:46;17.80;99.90
23116;DHT22;11727;52.134;5.052;2023-08-31T11:59:16;17.80;99.90
23116;DHT22;11727;52.134;5.052;2023-08-31T12:01:49;17.80;99.90
23116;DHT22;11727;52.134;5.052;2023-08-31T12:04:21;17.80;99.90
23116;DHT22;11727;52.134;5.052;2023-08-31T12:07:03;17.70;99.90
23116;DHT22;11727;52.134;5.052;2023-08-31T12:12:15;17.80;99.90
23116;DHT22;11727;52.134;5.052;2023-08-31T12:14:42;17.90;99.90
23116;DHT22;11727;52.134;5.052;2023-08-31T12:17:08;17.90;99.90
23116;DHT22;11727;52.134;5.052;2023-08-31T12:22:09;18.00;99.90
23116;DHT22;11727;52.134;5.052;2023-08-31T12:24:39;18.00;99.90
23116;DHT22;11727;52.134;5.052;2023-08-31T12:27:08;18.00;99.90
23116;DHT22;11727;52.134;5.052;2023-08-31T12:29:34;18.10;99.90
23116;DHT22;11727;52.134;5.052;2023-08-31T12:32:00;18.10;99.90
23116;DHT22;11727;52.134;5.052;2023-08-31T12:34:29;18.20;99.90
23116;DHT22;11727;52.134;5.052;2023-08-31T12:36:56;18.20;99.90
23116;DHT22;11727;52.134;5.052;2023-08-31T12:39:27;18.30;99.90
23116;DHT22;11727;52.134;5.052;2023-08-31T12:41:53;18.20;99.90
23116;DHT22;11727;52.134;5.052;2023-08-31T12:44:18;18.30;99.90
23116;DHT22;11727;52.134;5.052;2023-08-31T12:46:44;18.30;99.90
23116;DHT22;11727;52.134;5.052;2023-08-31T12:49:09;18.40;99.90
23116;DHT22;11727;52.134;5.052;2023-08-31T12:51:37;18.40;99.90
23116;DHT22;11727;52.134;5.052;2023-08-31T12:54:04;18.40;99.90
23116;DHT22;11727;52.134;5.052;2023-08-31T12:56:57;18.50;99.90
23116;DHT22;11727;52.134;5.052;2023-08-31T12:59:23;18.40;99.90
23116;DHT22;11727;52.134;5.052;2023-08-31T13:01:49;18.30;99.90
23116;DHT22;11727;52.134;5.052;2023-08-31T13:04:22;18.20;99.90
23116;DHT22;11727;52.134;5.052;2023-08-31T13:06:50;18.20;99.90
23116;DHT22;11727;52.134;5.052;2023-08-31T13:09:19;18.20;99.90
23116;DHT22;11727;52.134;5.052;2023-08-31T13:11:46;18.20;99.90
23116;DHT22;11727;52.134;5.052;2023-08-31T13:14:12;18.30;99.90
23116;DHT22;11727;52.134;5.052;2023-08-31T13:16:44;18.30;99.90
23116;DHT22;11727;52.134;5.052;2023-08-31T13:19:09;18.30;99.90
23116;DHT22;11727;52.134;5.052;2023-08-31T13:21:41;18.40;99.90
23116;DHT22;11727;52.134;5.052;2023-08-31T13:24:08;18.40;99.90
23116;DHT22;11727;52.134;5.052;2023-08-31T13:26:33;18.40;99.90
23116;DHT22;11727;52.134;5.052;2023-08-31T13:28:59;18.50;99.90
23116;DHT22;11727;52.134;5.052;2023-08-31T13:31:24;18.50;99.90
23116;DHT22;11727;52.134;5.052;2023-08-31T13:33:50;18.60;99.90
23116;DHT22;11727;52.134;5.052;2023-08-31T13:36:15;18.70;99.90
23116;DHT22;11727;52.134;5.052;2023-08-31T13:38:41;18.70;99.90
23116;DHT22;11727;52.134;5.052;2023-08-31T13:41:07;18.60;99.90
23116;DHT22;11727;52.134;5.052;2023-08-31T13:43:33;18.70;99.90
23116;DHT22;11727;52.134;5.052;2023-08-31T13:45:59;18.70;99.90
23116;DHT22;11727;52.134;5.052;2023-08-31T13:48:25;18.70;99.90
23116;DHT22;11727;52.134;5.052;2023-08-31T13:50:50;18.60;99.90
23116;DHT22;11727;52.134;5.052;2023-08-31T13:53:16;18.60;99.90
23116;DHT22;11727;52.134;5.052;2023-08-31T13:55:41;18.60;99.90
23116;DHT22;11727;52.134;5.052;2023-08-31T13:58:08;18.60;99.90
23116;DHT22;11727;52.134;5.052;2023-08-31T14:00:34;18.70;99.90
23116;DHT22;11727;52.134;5.052;2023-08-31T14:03:01;18.80;99.90
23116;DHT22;11727;52.134;5.052;2023-08-31T14:05:29;18.80;99.90
23116;DHT22;11727;52.134;5.052;2023-08-31T14:08:00;18.90;99.90
23116;DHT22;11727;52.134;5.052;2023-08-31T14:10:33;18.90;99.90
23116;DHT22;11727;52.134;5.052;2023-08-31T14:12:59;19.00;99.90
23116;DHT22;11727;52.134;5.052;2023-08-31T14:15:25;19.00;99.90
23116;DHT22;11727;52.134;5.052;2023-08-31T14:17:51;19.10;99.90
23116;DHT22;11727;52.134;5.052;2023-08-31T14:20:18;19.20;99.90
23116;DHT22;11727;52.134;5.052;2023-08-31T14:22:44;19.30;99.90
23116;DHT22;11727;52.134;5.052;2023-08-31T14:25:11;19.30;99.90
23116;DHT22;11727;52.134;5.052;2023-08-31T14:27:37;19.40;99.90
23116;DHT22;11727;52.134;5.052;2023-08-31T14:30:04;19.50;99.90
23116;DHT22;11727;52.134;5.052;2023-08-31T14:32:31;19.50;99.90
23116;DHT22;11727;52.134;5.052;2023-08-31T14:34:57;19.60;99.90
23116;DHT22;11727;52.134;5.052;2023-08-31T14:37:22;19.60;99.90
23116;DHT22;11727;52.134;5.052;2023-08-31T14:39:48;19.70;99.90
23116;DHT22;11727;52.134;5.052;2023-08-31T14:42:14;19.70;99.90
23116;DHT22;11727;52.134;5.052;2023-08-31T14:44:40;19.70;99.90
23116;DHT22;11727;52.134;5.052;2023-08-31T14:47:06;19.80;99.90
23116;DHT22;11727;52.134;5.052;2023-08-31T14:49:31;19.80;99.90
23116;DHT22;11727;52.134;5.052;2023-08-31T14:51:57;19.80;99.90
23116;DHT22;11727;52.134;5.052;2023-08-31T14:54:23;19.80;99.90
23116;DHT22;11727;52.134;5.052;2023-08-31T14:56:49;19.80;99.90
23116;DHT22;11727;52.134;5.052;2023-08-31T14:59:15;19.80;99.90
23116;DHT22;11727;52.134;5.052;2023-08-31T15:01:40;19.70;99.90
23116;DHT22;11727;52.134;5.052;2023-08-31T15:04:06;19.70;99.90
23116;DHT22;11727;52.134;5.052;2023-08-31T15:06:32;19.70;99.90
23116;DHT22;11727;52.134;5.052;2023-08-31T15:08:58;19.80;99.90
23116;DHT22;11727;52.134;5.052;2023-08-31T15:11:28;19.70;99.90
23116;DHT22;11727;52.134;5.052;2023-08-31T15:13:53;19.70;99.90
23116;DHT22;11727;52.134;5.052;2023-08-31T15:16:19;19.70;99.90
23116;DHT22;11727;52.134;5.052;2023-08-31T15:18:44;19.70;99.90
23116;DHT22;11727;52.134;5.052;2023-08-31T15:21:12;19.70;99.90
23116;DHT22;11727;52.134;5.052;2023-08-31T15:23:38;19.60;99.90
23116;DHT22;11727;52.134;5.052;2023-08-31T15:26:04;19.70;99.90
23116;DHT22;11727;52.134;5.052;2023-08-31T15:28:29;19.60;99.90
23116;DHT22;11727;52.134;5.052;2023-08-31T15:30:55;19.60;99.90
23116;DHT22;11727;52.134;5.052;2023-08-31T15:33:20;19.60;99.90
23116;DHT22;11727;52.134;5.052;2023-08-31T15:35:46;19.50;99.90
23116;DHT22;11727;52.134;5.052;2023-08-31T15:38:11;19.50;99.90
23116;DHT22;11727;52.134;5.052;2023-08-31T15:40:37;19.50;99.90
23116;DHT22;11727;52.134;5.052;2023-08-31T15:43:03;19.50;99.90
23116;DHT22;11727;52.134;5.052;2023-08-31T15:45:29;19.50;99.90
23116;DHT22;11727;52.134;5.052;2023-08-31T15:47:54;19.50;99.90
23116;DHT22;11727;52.134;5.052;2023-08-31T15:50:20;19.50;99.90
23116;DHT22;11727;52.134;5.052;2023-08-31T15:52:46;19.50;99.90
23116;DHT22;11727;52.134;5.052;2023-08-31T15:55:11;19.50;99.90
23116;DHT22;11727;52.134;5.052;2023-08-31T15:57:37;19.50;99.90
23116;DHT22;11727;52.134;5.052;2023-08-31T16:00:06;19.50;99.90
23116;DHT22;11727;52.134;5.052;2023-08-31T16:02:33;19.40;99.90
23116;DHT22;11727;52.134;5.052;2023-08-31T16:05:04;19.30;99.90
23116;DHT22;11727;52.134;5.052;2023-08-31T16:07:29;19.30;99.90
23116;DHT22;11727;52.134;5.052;2023-08-31T16:09:55;19.30;99.90
23116;DHT22;11727;52.134;5.052;2023-08-31T16:12:21;19.30;99.90
23116;DHT22;11727;52.134;5.052;2023-08-31T16:14:49;19.30;99.90
23116;DHT22;11727;52.134;5.052;2023-08-31T16:17:19;19.20;99.90
23116;DHT22;11727;52.134;5.052;2023-08-31T16:19:45;19.20;99.90
23116;DHT22;11727;52.134;5.052;2023-08-31T16:22:10;19.20;99.90
23116;DHT22;11727;52.134;5.052;2023-08-31T16:24:36;19.10;99.90
23116;DHT22;11727;52.134;5.052;2023-08-31T16:27:02;19.20;99.90
23116;DHT22;11727;52.134;5.052;2023-08-31T16:29:28;19.20;99.90
23116;DHT22;11727;52.134;5.052;2023-08-31T16:31:53;19.20;99.90
23116;DHT22;11727;52.134;5.052;2023-08-31T16:34:19;19.20;99.90
23116;DHT22;11727;52.134;5.052;2023-08-31T16:36:45;19.30;99.90
23116;DHT22;11727;52.134;5.052;2023-08-31T16:39:12;19.20;99.90
23116;DHT22;11727;52.134;5.052;2023-08-31T16:41:38;19.20;99.90
23116;DHT22;11727;52.134;5.052;2023-08-31T16:44:05;19.20;99.90
23116;DHT22;11727;52.134;5.052;2023-08-31T16:46:31;19.20;99.90
23116;DHT22;11727;52.134;5.052;2023-08-31T16:48:56;19.20;99.90
23116;DHT22;11727;52.134;5.052;2023-08-31T17:14:48;18.90;99.90
23116;DHT22;11727;52.134;5.052;2023-08-31T17:17:17;18.80;99.90
23116;DHT22;11727;52.134;5.052;2023-08-31T17:19:42;18.70;99.90
23116;DHT22;11727;52.134;5.052;2023-08-31T17:22:08;18.70;99.90
23116;DHT22;11727;52.134;5.052;2023-08-31T17:24:34;18.70;99.90
23116;DHT22;11727;52.134;5.052;2023-08-31T17:26:59;18.60;99.90
23116;DHT22;11727;52.134;5.052;2023-08-31T17:29:25;18.60;99.90
23116;DHT22;11727;52.134;5.052;2023-08-31T17:31:54;18.50;99.90
23116;DHT22;11727;52.134;5.052;2023-08-31T17:34:20;18.50;99.90
23116;DHT22;11727;52.134;5.052;2023-08-31T17:36:46;18.40;99.90
23116;DHT22;11727;52.134;5.052;2023-08-31T17:39:12;18.40;99.90
23116;DHT22;11727;52.134;5.052;2023-08-31T17:41:41;18.40;99.90
23116;DHT22;11727;52.134;5.052;2023-08-31T17:44:07;18.30;99.90
23116;DHT22;11727;52.134;5.052;2023-08-31T17:46:33;18.30;99.90
23116;DHT22;11727;52.134;5.052;2023-08-31T17:48:58;18.30;99.90
23116;DHT22;11727;52.134;5.052;2023-08-31T17:51:24;18.20;99.90
23116;DHT22;11727;52.134;5.052;2023-08-31T17:54:03;18.20;99.90
23116;DHT22;11727;52.134;5.052;2023-08-31T17:56:29;18.10;99.90
23116;DHT22;11727;52.134;5.052;2023-08-31T17:59:00;18.00;99.90
23116;DHT22;11727;52.134;5.052;2023-08-31T18:01:26;18.00;99.90
23116;DHT22;11727;52.134;5.052;2023-08-31T18:03:53;18.00;99.90
23116;DHT22;11727;52.134;5.052;2023-08-31T18:06:26;17.90;99.90
23116;DHT22;11727;52.134;5.052;2023-08-31T18:09:03;17.90;99.90
23116;DHT22;11727;52.134;5.052;2023-08-31T18:11:38;17.80;99.90
23116;DHT22;11727;52.134;5.052;2023-08-31T18:14:06;17.80;99.90
23116;DHT22;11727;52.134;5.052;2023-08-31T18:19:31;17.70;99.90
23116;DHT22;11727;52.134;5.052;2023-08-31T18:21:57;17.60;99.90
23116;DHT22;11727;52.134;5.052;2023-08-31T18:24:23;17.40;99.90
23116;DHT22;11727;52.134;5.052;2023-08-31T18:29:24;17.40;99.90
23116;DHT22;11727;52.134;5.052;2023-08-31T18:31:50;17.30;99.90
23116;DHT22;11727;52.134;5.052;2023-08-31T18:34:16;17.20;99.90
23116;DHT22;11727;52.134;5.052;2023-08-31T18:36:42;17.20;99.90
23116;DHT22;11727;52.134;5.052;2023-08-31T18:39:07;17.20;99.90
23116;DHT22;11727;52.134;5.052;2023-08-31T18:41:36;17.00;99.90
23116;DHT22;11727;52.134;5.052;2023-08-31T18:44:03;17.00;99.90
23116;DHT22;11727;52.134;5.052;2023-08-31T18:46:28;16.90;99.90
23116;DHT22;11727;52.134;5.052;2023-08-31T18:48:55;16.90;99.90
23116;DHT22;11727;52.134;5.052;2023-08-31T18:51:21;16.80;99.90
23116;DHT22;11727;52.134;5.052;2023-08-31T18:53:47;16.70;99.90
23116;DHT22;11727;52.134;5.052;2023-08-31T18:56:13;16.70;99.90
23116;DHT22;11727;52.134;5.052;2023-08-31T18:58:39;16.60;99.90
23116;DHT22;11727;52.134;5.052;2023-08-31T19:01:08;16.60;99.90
23116;DHT22;11727;52.134;5.052;2023-08-31T19:03:34;16.60;99.90
23116;DHT22;11727;52.134;5.052;2023-08-31T19:06:00;16.50;99.90
23116;DHT22;11727;52.134;5.052;2023-08-31T19:08:26;16.50;99.90
23116;DHT22;11727;52.134;5.052;2023-08-31T19:10:55;16.40;99.90
23116;DHT22;11727;52.134;5.052;2023-08-31T19:13:20;16.40;99.90
23116;DHT22;11727;52.134;5.052;2023-08-31T19:15:46;16.30;99.90
23116;DHT22;11727;52.134;5.052;2023-08-31T19:18:12;16.30;99.90
23116;DHT22;11727;52.134;5.052;2023-08-31T19:20:38;16.30;99.90
23116;DHT22;11727;52.134;5.052;2023-08-31T19:23:04;16.20;99.90
23116;DHT22;11727;52.134;5.052;2023-08-31T19:25:32;16.20;99.90
23116;DHT22;11727;52.134;5.052;2023-08-31T19:28:03;16.20;99.90
23116;DHT22;11727;52.134;5.052;2023-08-31T19:30:29;16.20;99.90
23116;DHT22;11727;52.134;5.052;2023-08-31T19:32:59;16.10;99.90
23116;DHT22;11727;52.134;5.052;2023-08-31T19:35:25;16.10;99.90
23116;DHT22;11727;52.134;5.052;2023-08-31T19:37:52;16.10;99.90
23116;DHT22;11727;52.134;5.052;2023-08-31T19:40:19;16.10;99.90
23116;DHT22;11727;52.134;5.052;2023-08-31T19:42:50;16.00;99.90
23116;DHT22;11727;52.134;5.052;2023-08-31T19:45:16;16.00;99.90
23116;DHT22;11727;52.134;5.052;2023-08-31T19:47:47;16.00;99.90
23116;DHT22;11727;52.134;5.052;2023-08-31T19:50:14;16.00;99.90
23116;DHT22;11727;52.134;5.052;2023-08-31T19:52:39;16.00;99.90
23116;DHT22;11727;52.134;5.052;2023-08-31T19:55:05;16.00;99.90
23116;DHT22;11727;52.134;5.052;2023-08-31T19:57:31;16.00;99.90
23116;DHT22;11727;52.134;5.052;2023-08-31T19:59:57;16.00;99.90
23116;DHT22;11727;52.134;5.052;2023-08-31T20:02:22;16.00;99.90